createdAt,value
2024-03-22T00:00:49.031Z,74.7
2024-03-22T00:03:48.612Z,74.9
2024-03-22T00:06:48.599Z,75.2
2024-03-22T00:09:48.548Z,73.2
2024-03-22T00:12:48.598Z,72.8
2024-03-22T00:15:48.597Z,73.9
2024-03-22T00:18:48.568Z,74.6
2024-03-22T00:21:48.598Z,75.1
2024-03-22T00:24:48.584Z,75.3
2024-03-22T00:27:48.544Z,75.5
2024-03-22T00:30:48.758Z,75.4
2024-03-22T00:33:48.519Z,75.5
2024-03-22T00:36:48.592Z,75.7
2024-03-22T00:39:48.587Z,75.7
2024-03-22T00:42:48.600Z,75.8
2024-03-22T00:45:48.583Z,75.7
2024-03-22T00:48:48.522Z,75.8
2024-03-22T00:51:48.573Z,75.9
2024-03-22T00:54:48.591Z,76.1
2024-03-22T00:57:48.562Z,76.1
2024-03-22T01:00:48.729Z,76.0
2024-03-22T01:03:48.551Z,75.6
2024-03-22T01:06:48.564Z,75.2
2024-03-22T01:09:48.548Z,75.3
2024-03-22T01:12:48.685Z,75.8
2024-03-22T01:15:48.710Z,76.1
2024-03-22T01:18:48.677Z,76.2
2024-03-22T01:21:48.541Z,75.7
2024-03-22T01:24:48.607Z,75.2
2024-03-22T01:27:48.510Z,75.2
2024-03-22T01:30:48.727Z,75.4
2024-03-22T01:33:48.534Z,75.2
2024-03-22T01:36:48.508Z,75.4
2024-03-22T01:39:48.580Z,75.1
2024-03-22T01:42:48.631Z,74.4
2024-03-22T01:45:48.679Z,74.4
2024-03-22T01:48:48.499Z,74.3
2024-03-22T01:51:48.508Z,74.4
2024-03-22T01:54:48.616Z,74.5
2024-03-22T01:57:48.520Z,74.2
2024-03-22T02:00:48.726Z,73.9
2024-03-22T02:03:48.492Z,73.2
2024-03-22T02:06:48.577Z,73.3
2024-03-22T02:09:48.503Z,73.6
2024-03-22T02:12:48.512Z,73.8
2024-03-22T02:15:48.603Z,74.1
2024-03-22T02:18:48.510Z,74.3
2024-03-22T02:21:48.553Z,74.4
2024-03-22T02:24:48.570Z,73.7
2024-03-22T02:27:48.742Z,72.8
2024-03-22T02:30:48.868Z,73.4
2024-03-22T02:33:48.561Z,73.9
2024-03-22T02:36:48.514Z,73.9
2024-03-22T02:39:48.547Z,73.9
2024-03-22T02:42:48.590Z,74.0
2024-03-22T02:45:48.572Z,73.9
2024-03-22T02:48:48.694Z,74.1
2024-03-22T02:51:48.556Z,74.0
2024-03-22T02:54:48.567Z,73.8
2024-03-22T02:57:48.568Z,73.7
2024-03-22T03:00:50.665Z,73.7
2024-03-22T03:03:48.524Z,73.7
2024-03-22T03:06:48.528Z,74.0
2024-03-22T03:09:48.564Z,73.0
2024-03-22T03:12:48.578Z,72.2
2024-03-22T03:15:48.558Z,71.9
2024-03-22T03:18:48.650Z,72.5
2024-03-22T03:21:48.555Z,72.8
2024-03-22T03:24:48.610Z,72.7
2024-03-22T03:27:48.524Z,72.9
2024-03-22T03:30:48.668Z,72.6
2024-03-22T03:33:48.522Z,72.4
2024-03-22T03:36:48.547Z,71.4
2024-03-22T03:39:48.547Z,71.9
2024-03-22T03:42:48.518Z,71.3
2024-03-22T03:45:48.594Z,70.4
2024-03-22T03:48:48.630Z,69.8
2024-03-22T03:51:48.600Z,70.9
2024-03-22T03:54:48.723Z,72.2
2024-03-22T03:57:48.543Z,73.6
2024-03-22T04:00:48.794Z,74.3
2024-03-22T04:03:48.525Z,74.7
2024-03-22T04:06:48.652Z,73.5
2024-03-22T04:09:48.523Z,72.4
2024-03-22T04:12:48.547Z,73.1
2024-03-22T04:15:48.607Z,73.7
2024-03-22T04:18:48.554Z,74.1
2024-03-22T04:21:48.530Z,74.9
2024-03-22T04:24:48.682Z,75.0
2024-03-22T04:27:48.557Z,74.8
2024-03-22T04:30:48.720Z,74.1
2024-03-22T04:33:48.567Z,73.3
2024-03-22T04:36:48.574Z,74.0
2024-03-22T04:39:48.534Z,74.5
2024-03-22T04:42:48.546Z,74.6
2024-03-22T04:45:48.592Z,74.7
2024-03-22T04:48:48.543Z,74.5
2024-03-22T04:51:48.484Z,74.7
2024-03-22T04:54:48.529Z,74.8
2024-03-22T04:57:48.507Z,74.0
2024-03-22T05:00:48.812Z,73.3
2024-03-22T05:03:48.526Z,73.6
2024-03-22T05:06:48.574Z,74.3
2024-03-22T05:09:48.583Z,75.0
2024-03-22T05:12:48.548Z,75.2
2024-03-22T05:15:48.626Z,75.5
2024-03-22T05:18:48.555Z,75.5
2024-03-22T05:21:48.519Z,75.8
2024-03-22T05:24:48.629Z,75.9
2024-03-22T05:27:48.570Z,75.7
2024-03-22T05:30:48.722Z,75.5
2024-03-22T05:33:48.522Z,75.6
2024-03-22T05:36:48.640Z,75.4
2024-03-22T05:39:48.500Z,75.6
2024-03-22T05:42:48.609Z,75.6
2024-03-22T05:45:48.679Z,75.8
2024-03-22T05:48:48.570Z,76.4
2024-03-22T05:51:48.546Z,76.5
2024-03-22T05:54:48.541Z,76.4
2024-03-22T05:57:48.587Z,76.5
2024-03-22T06:00:48.824Z,76.2
2024-03-22T06:03:48.529Z,76.1
2024-03-22T06:06:48.544Z,75.8
2024-03-22T06:09:48.560Z,75.8
2024-03-22T06:12:48.586Z,76.1
2024-03-22T06:15:48.816Z,76.1
2024-03-22T06:18:48.575Z,76.1
2024-03-22T06:21:48.544Z,75.7
2024-03-22T06:24:48.506Z,75.3
2024-03-22T06:27:48.505Z,74.9
2024-03-22T06:30:48.635Z,74.7
2024-03-22T06:33:48.549Z,74.2
2024-03-22T06:36:48.576Z,73.8
2024-03-22T06:39:48.561Z,73.1
2024-03-22T06:42:48.758Z,72.4
2024-03-22T06:45:48.669Z,72.1
2024-03-22T06:48:51.173Z,72.5
2024-03-22T06:51:48.547Z,72.9
2024-03-22T06:54:48.610Z,73.3
2024-03-22T06:57:48.515Z,73.1
2024-03-22T07:00:48.775Z,73.2
2024-03-22T07:03:48.525Z,73.0
2024-03-22T07:06:48.586Z,73.1
2024-03-22T07:09:48.571Z,73.4
2024-03-22T07:12:48.539Z,73.4
2024-03-22T07:15:50.047Z,73.5
2024-03-22T07:18:48.539Z,73.0
2024-03-22T07:21:48.524Z,72.4
2024-03-22T07:24:48.772Z,71.9
2024-03-22T07:27:48.542Z,71.8
2024-03-22T07:30:48.760Z,71.4
2024-03-22T07:33:48.559Z,71.1
2024-03-22T07:36:48.563Z,71.0
2024-03-22T07:39:48.665Z,71.3
2024-03-22T07:42:48.618Z,71.8
2024-03-22T07:45:48.643Z,71.7
2024-03-22T07:48:48.723Z,71.6
2024-03-22T07:51:48.555Z,71.3
2024-03-22T07:54:48.581Z,71.6
2024-03-22T07:57:48.574Z,72.3
2024-03-22T08:00:48.866Z,72.1
2024-03-22T08:03:48.547Z,72.0
2024-03-22T08:06:48.555Z,71.9
2024-03-22T08:09:48.543Z,72.0
2024-03-22T08:12:48.779Z,72.7
2024-03-22T08:15:48.569Z,72.9
2024-03-22T08:18:48.656Z,72.9
2024-03-22T08:21:49.400Z,72.9
2024-03-22T08:24:48.873Z,73.1
2024-03-22T08:30:50.534Z,73.1
2024-03-22T08:33:48.618Z,73.5
2024-03-22T08:36:48.663Z,73.7
2024-03-22T08:39:48.572Z,74.0
2024-03-22T08:42:48.563Z,74.9
2024-03-22T08:45:48.770Z,75.2
2024-03-22T08:48:48.670Z,74.2
2024-03-22T08:51:49.556Z,73.0
2024-03-22T08:54:49.900Z,72.7
2024-03-22T08:57:54.499Z,73.2
2024-03-22T09:00:48.892Z,73.6
2024-03-22T09:03:48.758Z,74.3
2024-03-22T09:06:57.053Z,74.4
2024-03-22T09:09:48.658Z,74.9
2024-03-22T09:12:48.766Z,74.6
2024-03-22T09:15:49.097Z,74.7
2024-03-22T09:18:48.819Z,74.9
2024-03-22T09:21:48.710Z,75.3
2024-03-22T09:24:48.941Z,75.8
2024-03-22T09:27:48.645Z,76.1
2024-03-22T09:30:58.617Z,76.4
2024-03-22T09:33:48.724Z,76.6
2024-03-22T09:36:49.622Z,76.7
2024-03-22T09:39:48.632Z,76.2
2024-03-22T09:42:48.709Z,75.9
2024-03-22T09:45:48.553Z,75.8
2024-03-22T09:48:48.581Z,75.2
2024-03-22T09:51:48.453Z,75.1
2024-03-22T09:54:48.518Z,74.4
2024-03-22T09:57:48.639Z,74.6
2024-03-22T10:00:48.554Z,75.2
2024-03-22T10:03:48.515Z,75.9
2024-03-22T10:06:48.468Z,76.4
2024-03-22T10:09:48.450Z,76.9
2024-03-22T10:12:50.274Z,77.5
2024-03-22T10:15:48.499Z,77.8
2024-03-22T10:18:48.691Z,77.8
2024-03-22T10:21:48.483Z,77.9
2024-03-22T10:24:48.470Z,78.5
2024-03-22T10:27:48.695Z,79.0
2024-03-22T10:30:48.960Z,78.9
2024-03-22T10:33:48.630Z,78.9
2024-03-22T10:36:48.743Z,78.0
2024-03-22T10:39:48.625Z,76.5
2024-03-22T10:42:48.772Z,77.3
2024-03-22T10:45:48.772Z,77.4
2024-03-22T10:48:48.530Z,76.9
2024-03-22T10:51:48.776Z,76.3
2024-03-22T10:54:48.816Z,76.2
2024-03-22T10:57:48.629Z,76.9
2024-03-22T11:00:49.059Z,77.6
2024-03-22T11:03:48.513Z,78.0
2024-03-22T11:06:50.295Z,78.4
2024-03-22T11:09:48.564Z,78.6
2024-03-22T11:12:48.633Z,78.3
2024-03-22T11:15:48.651Z,77.0
2024-03-22T11:18:48.664Z,75.4
2024-03-22T11:21:48.601Z,74.5
2024-03-22T11:24:48.642Z,74.7
2024-03-22T11:27:48.549Z,74.9
2024-03-22T11:30:48.743Z,75.8
2024-03-22T11:33:49.170Z,76.0
2024-03-22T11:36:48.616Z,76.5
2024-03-22T11:39:48.524Z,76.9
2024-03-22T11:42:48.706Z,77.4
2024-03-22T11:45:48.637Z,78.2
2024-03-22T11:48:48.675Z,79.3
2024-03-22T11:51:48.554Z,79.8
2024-03-22T11:54:48.618Z,79.8
2024-03-22T11:57:48.579Z,80.9
2024-03-22T12:03:48.605Z,80.8
2024-03-22T12:06:48.630Z,81.0
2024-03-22T12:09:48.663Z,81.6
2024-03-22T12:12:48.643Z,81.6
2024-03-22T12:15:48.636Z,81.6
2024-03-22T12:18:48.630Z,81.5
2024-03-22T12:21:48.618Z,81.2
2024-03-22T12:24:48.699Z,80.9
2024-03-22T12:27:56.024Z,80.9
2024-03-22T12:30:48.823Z,80.7
2024-03-22T12:33:48.543Z,80.3
2024-03-22T12:36:48.685Z,80.4
2024-03-22T12:39:48.673Z,81.0
2024-03-22T12:42:48.730Z,81.0
2024-03-22T12:45:48.751Z,80.8
2024-03-22T12:48:48.743Z,80.8
2024-03-22T12:51:48.615Z,80.6
2024-03-22T12:54:48.610Z,80.8
2024-03-22T12:57:48.572Z,80.4
2024-03-22T13:00:48.911Z,80.6
2024-03-22T13:03:48.584Z,80.5
2024-03-22T13:06:48.668Z,80.3
2024-03-22T13:09:48.552Z,80.7
2024-03-22T13:12:48.734Z,81.6
2024-03-22T13:18:48.757Z,81.8
2024-03-22T13:21:48.547Z,81.4
2024-03-22T13:24:48.687Z,81.0
2024-03-22T13:27:48.684Z,80.7
2024-03-22T13:30:48.714Z,80.6
2024-03-22T13:33:48.687Z,80.5
2024-03-22T13:36:48.628Z,79.6
2024-03-22T13:39:48.622Z,78.7
2024-03-22T13:42:48.617Z,78.1
2024-03-22T13:45:50.256Z,78.0
2024-03-22T13:48:48.597Z,78.7
2024-03-22T13:51:49.819Z,79.5
2024-03-22T13:54:48.652Z,79.5
2024-03-22T13:57:52.386Z,79.7
2024-03-22T14:00:48.965Z,80.0
2024-03-22T14:03:48.639Z,80.3
2024-03-22T14:06:48.858Z,80.2
2024-03-22T14:09:48.735Z,79.8
2024-03-22T14:12:48.720Z,79.2
2024-03-22T14:15:48.944Z,78.7
2024-03-22T14:18:48.707Z,77.8
2024-03-22T14:21:48.752Z,77.2
2024-03-22T14:24:48.715Z,76.9
2024-03-22T14:27:48.732Z,76.7
2024-03-22T14:30:49.400Z,76.6
2024-03-22T14:33:48.671Z,76.6
2024-03-22T14:36:48.624Z,76.6
2024-03-22T14:39:48.691Z,76.5
2024-03-22T14:42:48.669Z,76.4
2024-03-22T14:45:48.707Z,76.3
2024-03-22T14:48:48.690Z,76.4
2024-03-22T14:51:48.736Z,76.7
2024-03-22T14:54:48.842Z,76.0
2024-03-22T14:57:49.091Z,75.6
2024-03-22T15:00:48.766Z,75.7
2024-03-22T15:03:51.090Z,75.6
2024-03-22T15:06:48.576Z,75.3
2024-03-22T15:09:49.338Z,75.1
2024-03-22T15:12:48.587Z,75.3
2024-03-22T15:15:49.527Z,75.1
2024-03-22T15:18:48.701Z,75.2
2024-03-22T15:21:48.741Z,75.2
2024-03-22T15:24:48.601Z,75.4
2024-03-22T15:27:48.661Z,75.3
2024-03-22T15:30:48.898Z,75.2
2024-03-22T15:33:48.638Z,74.9
2024-03-22T15:36:48.758Z,75.0
2024-03-22T15:39:48.731Z,74.8
2024-03-22T15:42:48.795Z,74.7
2024-03-22T15:45:49.000Z,74.2
2024-03-22T15:48:48.856Z,73.8
2024-03-22T15:51:48.887Z,74.2
2024-03-22T15:54:48.743Z,74.8
2024-03-22T15:57:48.647Z,74.6
2024-03-22T16:00:49.127Z,74.4
2024-03-22T16:03:48.745Z,74.2
2024-03-22T16:06:48.653Z,73.1
2024-03-22T16:09:52.514Z,72.6
2024-03-22T16:12:48.861Z,73.0
2024-03-22T16:15:48.844Z,72.9
2024-03-22T16:18:48.695Z,72.7
2024-03-22T16:21:48.689Z,72.4
2024-03-22T16:24:48.655Z,72.8
2024-03-22T16:27:48.674Z,72.1
2024-03-22T16:30:49.124Z,70.6
2024-03-22T16:33:48.530Z,70.5
2024-03-22T16:36:48.540Z,70.9
2024-03-22T16:39:48.529Z,71.3
2024-03-22T16:42:48.645Z,71.7
2024-03-22T16:45:48.608Z,72.2
2024-03-22T16:48:48.605Z,72.1
2024-03-22T16:51:49.220Z,72.5
2024-03-22T16:54:48.577Z,73.1
2024-03-22T16:57:49.780Z,73.4
2024-03-22T17:00:48.793Z,73.7
2024-03-22T17:03:48.539Z,74.2
2024-03-22T17:06:53.955Z,74.8
2024-03-22T17:09:48.552Z,74.8
2024-03-22T17:12:53.338Z,74.2
2024-03-22T17:15:48.573Z,73.3
2024-03-22T17:18:48.697Z,72.8
2024-03-22T17:21:48.507Z,72.9
2024-03-22T17:24:48.705Z,72.6
2024-03-22T17:27:48.490Z,73.1
2024-03-22T17:30:48.814Z,72.9
2024-03-22T17:33:48.960Z,72.9
2024-03-22T17:36:48.699Z,72.7
2024-03-22T17:39:48.654Z,73.0
2024-03-22T17:42:48.807Z,72.7
2024-03-22T17:45:48.933Z,72.3
2024-03-22T17:48:49.042Z,71.4
2024-03-22T17:51:48.808Z,70.2
2024-03-22T17:54:48.845Z,69.4
2024-03-22T17:57:48.618Z,69.3
2024-03-22T18:00:48.933Z,69.7
2024-03-22T18:03:48.727Z,70.3
2024-03-22T18:06:49.540Z,70.5
2024-03-22T18:09:49.363Z,70.9
2024-03-22T18:12:48.593Z,70.6
2024-03-22T18:15:48.798Z,70.5
2024-03-22T18:18:48.554Z,70.3
2024-03-22T18:21:48.554Z,70.7
2024-03-22T18:24:48.560Z,70.8
2024-03-22T18:27:48.578Z,70.9
2024-03-22T18:30:48.758Z,71.2
2024-03-22T18:33:48.520Z,71.5
2024-03-22T18:36:48.565Z,71.5
2024-03-22T18:39:48.502Z,71.5
2024-03-22T18:42:48.594Z,71.6
2024-03-22T18:45:48.710Z,71.7
2024-03-22T18:48:48.515Z,71.7
2024-03-22T18:51:48.497Z,71.4
2024-03-22T18:54:48.533Z,71.7
2024-03-22T18:57:48.514Z,71.7
2024-03-22T19:00:48.648Z,71.8
2024-03-22T19:03:48.527Z,71.5
2024-03-22T19:06:48.554Z,71.6
2024-03-22T19:09:48.529Z,71.3
2024-03-22T19:12:48.522Z,71.1
2024-03-22T19:15:48.503Z,71.3
2024-03-22T19:18:48.601Z,71.2
2024-03-22T19:21:48.499Z,71.0
2024-03-22T19:24:48.584Z,71.1
2024-03-22T19:27:48.495Z,71.2
2024-03-22T19:30:48.890Z,71.1
2024-03-22T19:33:48.479Z,71.1
2024-03-22T19:36:48.610Z,71.2
2024-03-22T19:39:48.503Z,71.2
2024-03-22T19:42:48.576Z,71.2
2024-03-22T19:45:48.569Z,71.2
2024-03-22T19:48:48.556Z,71.2
2024-03-22T19:51:48.579Z,71.4
2024-03-22T19:54:48.558Z,71.1
2024-03-22T19:57:48.528Z,71.0
2024-03-22T20:00:48.922Z,71.2
2024-03-22T20:03:48.551Z,71.3
2024-03-22T20:06:48.565Z,71.0
2024-03-22T20:09:48.567Z,70.9
2024-03-22T20:12:48.739Z,70.5
2024-03-22T20:15:48.621Z,70.2
2024-03-22T20:18:48.581Z,70.3
2024-03-22T20:21:48.499Z,70.2
2024-03-22T20:24:48.518Z,70.4
2024-03-22T20:27:48.652Z,70.4
2024-03-22T20:30:48.771Z,70.7
2024-03-22T20:33:48.524Z,70.7
2024-03-22T20:36:48.581Z,70.9
2024-03-22T20:39:48.576Z,70.8
2024-03-22T20:42:48.558Z,70.7
2024-03-22T20:45:48.596Z,70.7
2024-03-22T20:48:48.658Z,70.9
2024-03-22T20:51:48.552Z,70.9
2024-03-22T20:54:48.541Z,71.1
2024-03-22T20:57:48.599Z,70.2
2024-03-22T21:00:48.843Z,69.6
2024-03-22T21:03:48.864Z,69.2
2024-03-22T21:06:48.597Z,69.7
2024-03-22T21:09:48.699Z,70.4
2024-03-22T21:12:48.641Z,70.1
2024-03-22T21:15:48.703Z,69.4
2024-03-22T21:18:48.659Z,68.9
2024-03-22T21:21:48.639Z,68.7
2024-03-22T21:24:48.546Z,68.8
2024-03-22T21:27:48.609Z,69.7
2024-03-22T21:30:48.689Z,69.9
2024-03-22T21:33:48.557Z,70.5
2024-03-22T21:36:48.570Z,70.7
2024-03-22T21:39:48.536Z,70.9
2024-03-22T21:42:48.525Z,70.9
2024-03-22T21:45:48.544Z,70.9
2024-03-22T21:48:48.626Z,70.7
2024-03-22T21:51:48.624Z,70.7
2024-03-22T21:54:48.570Z,70.6
2024-03-22T21:57:48.624Z,70.7
2024-03-22T22:00:48.692Z,70.6
2024-03-22T22:03:48.524Z,70.6
2024-03-22T22:06:48.538Z,70.5
2024-03-22T22:09:48.605Z,70.7
2024-03-22T22:12:48.613Z,70.6
2024-03-22T22:15:52.078Z,70.5
2024-03-22T22:18:48.699Z,70.2
2024-03-22T22:21:48.520Z,70.3
2024-03-22T22:24:48.623Z,70.2
2024-03-22T22:27:48.522Z,70.4
2024-03-22T22:30:48.762Z,70.6
2024-03-22T22:33:48.521Z,70.7
2024-03-22T22:36:48.536Z,70.7
2024-03-22T22:39:48.617Z,70.8
2024-03-22T22:42:48.555Z,70.8
2024-03-22T22:45:48.644Z,69.8
2024-03-22T22:48:48.582Z,69.2
2024-03-22T22:51:48.499Z,69.7
2024-03-22T22:54:48.598Z,69.9
2024-03-22T22:57:48.520Z,69.6
2024-03-22T23:00:49.232Z,69.8
2024-03-22T23:03:48.558Z,69.7
2024-03-22T23:06:48.668Z,70.2
2024-03-22T23:09:48.550Z,70.2
2024-03-22T23:12:48.580Z,70.0
2024-03-22T23:15:48.682Z,70.1
2024-03-22T23:18:48.575Z,70.3
2024-03-22T23:21:49.354Z,70.6
2024-03-22T23:24:48.542Z,70.8
2024-03-22T23:27:48.534Z,70.9
2024-03-22T23:30:49.005Z,71.0
2024-03-22T23:33:48.498Z,70.9
2024-03-22T23:36:48.615Z,70.8
2024-03-22T23:39:48.616Z,70.8
2024-03-22T23:42:48.535Z,70.9
2024-03-22T23:45:48.656Z,71.0
2024-03-22T23:48:48.672Z,71.0
2024-03-22T23:51:48.570Z,71.3
2024-03-22T23:54:48.603Z,71.1
2024-03-22T23:57:48.637Z,71.3
